sensor_id;sensor_type;location;lat;lon;timestamp;P1;durP1;ratioP1;P2;durP2;ratioP2
56746;SDS011;42623;49.978;9.966;2023-04-15T00:00:10;7.13;;;3.90;;
56746;SDS011;42623;49.978;9.966;2023-04-15T00:00:20;7.10;;;3.80;;
56746;SDS011;42623;49.978;9.966;2023-04-15T00:00:31;6.80;;;3.33;;
56746;SDS011;42623;49.978;9.966;2023-04-15T00:00:42;8.27;;;3.53;;
56746;SDS011;42623;49.978;9.966;2023-04-15T00:00:53;7.77;;;3.40;;
56746;SDS011;42623;49.978;9.966;2023-04-15T00:01:03;8.07;;;3.72;;
56746;SDS011;42623;49.978;9.966;2023-04-15T00:01:14;6.80;;;3.85;;
56746;SDS011;42623;49.978;9.966;2023-04-15T00:01:28;7.00;;;3.82;;
56746;SDS011;42623;49.978;9.966;2023-04-15T00:01:38;7.20;;;3.50;;
56746;SDS011;42623;49.978;9.966;2023-04-15T00:01:49;7.60;;;3.50;;
56746;SDS011;42623;49.978;9.966;2023-04-15T00:01:59;7.37;;;3.50;;
56746;SDS011;42623;49.978;9.966;2023-04-15T00:02:12;7.60;;;3.50;;
56746;SDS011;42623;49.978;9.966;2023-04-15T00:02:23;6.97;;;3.50;;
56746;SDS011;42623;49.978;9.966;2023-04-15T00:02:33;6.20;;;3.23;;
56746;SDS011;42623;49.978;9.966;2023-04-15T00:02:44;5.55;;;2.75;;
56746;SDS011;42623;49.978;9.966;2023-04-15T00:02:54;4.87;;;2.57;;
56746;SDS011;42623;49.978;9.966;2023-04-15T00:03:04;4.78;;;2.55;;
56746;SDS011;42623;49.978;9.966;2023-04-15T00:03:15;4.83;;;2.60;;
56746;SDS011;42623;49.978;9.966;2023-04-15T00:03:25;5.47;;;2.80;;
56746;SDS011;42623;49.978;9.966;2023-04-15T00:03:35;5.60;;;2.83;;
56746;SDS011;42623;49.978;9.966;2023-04-15T00:03:46;6.10;;;2.87;;
56746;SDS011;42623;49.978;9.966;2023-04-15T00:03:56;6.30;;;2.67;;
56746;SDS011;42623;49.978;9.966;2023-04-15T00:04:07;6.23;;;2.70;;
56746;SDS011;42623;49.978;9.966;2023-04-15T00:04:18;6.12;;;3.00;;
56746;SDS011;42623;49.978;9.966;2023-04-15T00:04:29;6.43;;;3.22;;
56746;SDS011;42623;49.978;9.966;2023-04-15T00:04:40;6.20;;;3.38;;
56746;SDS011;42623;49.978;9.966;2023-04-15T00:04:50;5.67;;;3.30;;
56746;SDS011;42623;49.978;9.966;2023-04-15T00:05:00;4.90;;;3.00;;
56746;SDS011;42623;49.978;9.966;2023-04-15T00:05:11;5.50;;;2.88;;
56746;SDS011;42623;49.978;9.966;2023-04-15T00:05:21;5.60;;;2.83;;
56746;SDS011;42623;49.978;9.966;2023-04-15T00:05:31;5.57;;;2.80;;
56746;SDS011;42623;49.978;9.966;2023-04-15T00:05:41;5.03;;;2.70;;
56746;SDS011;42623;49.978;9.966;2023-04-15T00:05:52;5.03;;;2.65;;
56746;SDS011;42623;49.978;9.966;2023-04-15T00:06:02;6.10;;;2.90;;
56746;SDS011;42623;49.978;9.966;2023-04-15T00:06:12;5.85;;;3.08;;
56746;SDS011;42623;49.978;9.966;2023-04-15T00:06:23;5.87;;;3.13;;
56746;SDS011;42623;49.978;9.966;2023-04-15T00:06:35;5.90;;;3.20;;
56746;SDS011;42623;49.978;9.966;2023-04-15T00:06:49;6.90;;;3.55;;
56746;SDS011;42623;49.978;9.966;2023-04-15T00:06:59;6.28;;;3.00;;
56746;SDS011;42623;49.978;9.966;2023-04-15T00:07:09;6.00;;;3.03;;
56746;SDS011;42623;49.978;9.966;2023-04-15T00:07:20;5.33;;;2.83;;
56746;SDS011;42623;49.978;9.966;2023-04-15T00:07:30;6.50;;;3.25;;
56746;SDS011;42623;49.978;9.966;2023-04-15T00:07:40;7.57;;;3.80;;
56746;SDS011;42623;49.978;9.966;2023-04-15T00:07:50;8.10;;;4.03;;
56746;SDS011;42623;49.978;9.966;2023-04-15T00:08:01;6.85;;;3.92;;
56746;SDS011;42623;49.978;9.966;2023-04-15T00:08:11;5.67;;;3.20;;
56746;SDS011;42623;49.978;9.966;2023-04-15T00:08:21;5.22;;;2.95;;
56746;SDS011;42623;49.978;9.966;2023-04-15T00:08:32;5.77;;;3.07;;
56746;SDS011;42623;49.978;9.966;2023-04-15T00:08:42;6.20;;;3.43;;
56746;SDS011;42623;49.978;9.966;2023-04-15T00:08:52;6.93;;;3.67;;
56746;SDS011;42623;49.978;9.966;2023-04-15T00:09:03;6.33;;;3.30;;
56746;SDS011;42623;49.978;9.966;2023-04-15T00:09:14;5.65;;;2.92;;
56746;SDS011;42623;49.978;9.966;2023-04-15T00:09:24;4.87;;;2.73;;
56746;SDS011;42623;49.978;9.966;2023-04-15T00:09:34;6.23;;;3.30;;
56746;SDS011;42623;49.978;9.966;2023-04-15T00:09:44;7.00;;;3.70;;
56746;SDS011;42623;49.978;9.966;2023-04-15T00:09:55;7.20;;;3.77;;
56746;SDS011;42623;49.978;9.966;2023-04-15T00:10:06;6.75;;;3.60;;
56746;SDS011;42623;49.978;9.966;2023-04-15T00:10:17;6.57;;;3.40;;
56746;SDS011;42623;49.978;9.966;2023-04-15T00:10:27;6.38;;;3.22;;
56746;SDS011;42623;49.978;9.966;2023-04-15T00:10:37;6.00;;;3.13;;
56746;SDS011;42623;49.978;9.966;2023-04-15T00:10:47;5.27;;;2.97;;
56746;SDS011;42623;49.978;9.966;2023-04-15T00:10:58;5.88;;;3.13;;
56746;SDS011;42623;49.978;9.966;2023-04-15T00:11:11;6.18;;;3.40;;
56746;SDS011;42623;49.978;9.966;2023-04-15T00:11:22;7.07;;;3.83;;
56746;SDS011;42623;49.978;9.966;2023-04-15T00:11:33;5.88;;;3.63;;
56746;SDS011;42623;49.978;9.966;2023-04-15T00:11:43;6.00;;;3.37;;
56746;SDS011;42623;49.978;9.966;2023-04-15T00:11:54;5.93;;;3.43;;
56746;SDS011;42623;49.978;9.966;2023-04-15T00:12:04;6.63;;;3.67;;
56746;SDS011;42623;49.978;9.966;2023-04-15T00:12:14;6.40;;;3.90;;
56746;SDS011;42623;49.978;9.966;2023-04-15T00:12:25;6.20;;;3.80;;
56746;SDS011;42623;49.978;9.966;2023-04-15T00:12:35;6.22;;;3.58;;
56746;SDS011;42623;49.978;9.966;2023-04-15T00:12:46;6.30;;;3.23;;
56746;SDS011;42623;49.978;9.966;2023-04-15T00:12:56;6.23;;;3.03;;
56746;SDS011;42623;49.978;9.966;2023-04-15T00:13:06;7.28;;;3.60;;
56746;SDS011;42623;49.978;9.966;2023-04-15T00:13:16;9.20;;;4.50;;
56746;SDS011;42623;49.978;9.966;2023-04-15T00:13:26;10.47;;;4.70;;
56746;SDS011;42623;49.978;9.966;2023-04-15T00:13:37;9.40;;;3.92;;
56746;SDS011;42623;49.978;9.966;2023-04-15T00:13:48;8.43;;;3.75;;
56746;SDS011;42623;49.978;9.966;2023-04-15T00:13:58;6.90;;;3.60;;
56746;SDS011;42623;49.978;9.966;2023-04-15T00:14:09;5.50;;;3.15;;
56746;SDS011;42623;49.978;9.966;2023-04-15T00:14:19;5.30;;;2.73;;
56746;SDS011;42623;49.978;9.966;2023-04-15T00:14:30;6.07;;;2.90;;
56746;SDS011;42623;49.978;9.966;2023-04-15T00:14:40;6.50;;;3.00;;
56746;SDS011;42623;49.978;9.966;2023-04-15T00:14:50;6.90;;;3.23;;
56746;SDS011;42623;49.978;9.966;2023-04-15T00:15:01;6.60;;;3.38;;
56746;SDS011;42623;49.978;9.966;2023-04-15T00:15:11;6.47;;;3.40;;
56746;SDS011;42623;49.978;9.966;2023-04-15T00:15:21;6.07;;;3.50;;
56746;SDS011;42623;49.978;9.966;2023-04-15T00:15:31;5.90;;;3.28;;
56746;SDS011;42623;49.978;9.966;2023-04-15T00:15:41;6.20;;;3.40;;
56746;SDS011;42623;49.978;9.966;2023-04-15T00:15:52;6.80;;;3.33;;
56746;SDS011;42623;49.978;9.966;2023-04-15T00:16:02;7.03;;;3.38;;
56746;SDS011;42623;49.978;9.966;2023-04-15T00:16:13;6.70;;;3.27;;
56746;SDS011;42623;49.978;9.966;2023-04-15T00:16:23;6.37;;;3.47;;
56746;SDS011;42623;49.978;9.966;2023-04-15T00:16:33;7.20;;;3.80;;
56746;SDS011;42623;49.978;9.966;2023-04-15T00:16:43;7.77;;;4.43;;
56746;SDS011;42623;49.978;9.966;2023-04-15T00:16:53;8.70;;;4.73;;
56746;SDS011;42623;49.978;9.966;2023-04-15T00:17:06;8.52;;;4.80;;
56746;SDS011;42623;49.978;9.966;2023-04-15T00:17:16;8.63;;;4.57;;
56746;SDS011;42623;49.978;9.966;2023-04-15T00:17:26;7.63;;;4.07;;
56746;SDS011;42623;49.978;9.966;2023-04-15T00:17:37;7.80;;;4.10;;
56746;SDS011;42623;49.978;9.966;2023-04-15T00:17:49;7.88;;;4.30;;
56746;SDS011;42623;49.978;9.966;2023-04-15T00:18:01;6.75;;;3.97;;
56746;SDS011;42623;49.978;9.966;2023-04-15T00:18:11;6.13;;;3.53;;
56746;SDS011;42623;49.978;9.966;2023-04-15T00:18:22;5.63;;;3.20;;
56746;SDS011;42623;49.978;9.966;2023-04-15T00:18:33;5.63;;;3.17;;
56746;SDS011;42623;49.978;9.966;2023-04-15T00:18:43;4.93;;;3.03;;
56746;SDS011;42623;49.978;9.966;2023-04-15T00:18:53;5.70;;;3.33;;
56746;SDS011;42623;49.978;9.966;2023-04-15T00:19:03;6.10;;;3.23;;
56746;SDS011;42623;49.978;9.966;2023-04-15T00:19:13;6.10;;;3.10;;
56746;SDS011;42623;49.978;9.966;2023-04-15T00:19:23;5.80;;;2.83;;
56746;SDS011;42623;49.978;9.966;2023-04-15T00:19:34;5.85;;;3.03;;
56746;SDS011;42623;49.978;9.966;2023-04-15T00:19:44;6.07;;;3.03;;
56746;SDS011;42623;49.978;9.966;2023-04-15T00:19:54;6.47;;;3.20;;
56746;SDS011;42623;49.978;9.966;2023-04-15T00:20:05;6.30;;;3.10;;
56746;SDS011;42623;49.978;9.966;2023-04-15T00:20:15;6.25;;;3.33;;
56746;SDS011;42623;49.978;9.966;2023-04-15T00:20:26;5.30;;;3.15;;
56746;SDS011;42623;49.978;9.966;2023-04-15T00:20:36;5.23;;;3.03;;
56746;SDS011;42623;49.978;9.966;2023-04-15T00:20:46;4.90;;;2.90;;
56746;SDS011;42623;49.978;9.966;2023-04-15T00:20:57;5.40;;;3.07;;
56746;SDS011;42623;49.978;9.966;2023-04-15T00:21:07;5.97;;;3.10;;
56746;SDS011;42623;49.978;9.966;2023-04-15T00:21:18;6.50;;;3.33;;
56746;SDS011;42623;49.978;9.966;2023-04-15T00:21:28;6.15;;;3.40;;
56746;SDS011;42623;49.978;9.966;2023-04-15T00:21:39;5.93;;;3.60;;
56746;SDS011;42623;49.978;9.966;2023-04-15T00:21:49;5.60;;;3.38;;
56746;SDS011;42623;49.978;9.966;2023-04-15T00:22:00;5.50;;;3.35;;
56746;SDS011;42623;49.978;9.966;2023-04-15T00:22:11;5.27;;;3.40;;
56746;SDS011;42623;49.978;9.966;2023-04-15T00:22:21;5.55;;;3.17;;
56746;SDS011;42623;49.978;9.966;2023-04-15T00:22:31;5.80;;;3.03;;
56746;SDS011;42623;49.978;9.966;2023-04-15T00:22:41;5.80;;;2.90;;
56746;SDS011;42623;49.978;9.966;2023-04-15T00:22:52;5.80;;;3.38;;
56746;SDS011;42623;49.978;9.966;2023-04-15T00:23:02;5.63;;;3.30;;
56746;SDS011;42623;49.978;9.966;2023-04-15T00:23:12;5.72;;;3.65;;
56746;SDS011;42623;49.978;9.966;2023-04-15T00:23:23;5.97;;;3.03;;
56746;SDS011;42623;49.978;9.966;2023-04-15T00:23:33;5.90;;;3.17;;
56746;SDS011;42623;49.978;9.966;2023-04-15T00:23:45;5.82;;;2.80;;
56746;SDS011;42623;49.978;9.966;2023-04-15T00:23:58;5.80;;;3.00;;
56746;SDS011;42623;49.978;9.966;2023-04-15T00:24:08;5.90;;;2.80;;
56746;SDS011;42623;49.978;9.966;2023-04-15T00:24:19;5.10;;;2.53;;
56746;SDS011;42623;49.978;9.966;2023-04-15T00:24:29;4.87;;;2.50;;
56746;SDS011;42623;49.978;9.966;2023-04-15T00:24:40;5.12;;;2.60;;
56746;SDS011;42623;49.978;9.966;2023-04-15T00:24:54;6.03;;;3.22;;
56746;SDS011;42623;49.978;9.966;2023-04-15T00:25:04;6.13;;;3.25;;
56746;SDS011;42623;49.978;9.966;2023-04-15T00:25:15;5.73;;;3.27;;
56746;SDS011;42623;49.978;9.966;2023-04-15T00:25:25;6.38;;;3.35;;
56746;SDS011;42623;49.978;9.966;2023-04-15T00:25:36;6.13;;;3.25;;
56746;SDS011;42623;49.978;9.966;2023-04-15T00:25:46;6.07;;;3.00;;
56746;SDS011;42623;49.978;9.966;2023-04-15T00:25:56;4.73;;;2.50;;
56746;SDS011;42623;49.978;9.966;2023-04-15T00:26:06;5.37;;;2.70;;
56746;SDS011;42623;49.978;9.966;2023-04-15T00:26:17;5.40;;;2.92;;
56746;SDS011;42623;49.978;9.966;2023-04-15T00:26:28;5.60;;;3.03;;
56746;SDS011;42623;49.978;9.966;2023-04-15T00:26:38;5.27;;;2.93;;
56746;SDS011;42623;49.978;9.966;2023-04-15T00:26:48;6.38;;;2.90;;
56746;SDS011;42623;49.978;9.966;2023-04-15T00:26:59;6.73;;;3.37;;
56746;SDS011;42623;49.978;9.966;2023-04-15T00:27:09;6.47;;;3.40;;
56746;SDS011;42623;49.978;9.966;2023-04-15T00:27:19;5.63;;;3.30;;
56746;SDS011;42623;49.978;9.966;2023-04-15T00:27:29;5.30;;;2.95;;
56746;SDS011;42623;49.978;9.966;2023-04-15T00:27:40;5.40;;;2.87;;
56746;SDS011;42623;49.978;9.966;2023-04-15T00:27:50;6.40;;;3.13;;
56746;SDS011;42623;49.978;9.966;2023-04-15T00:28:00;6.28;;;2.97;;
56746;SDS011;42623;49.978;9.966;2023-04-15T00:28:10;6.33;;;2.93;;
56746;SDS011;42623;49.978;9.966;2023-04-15T00:28:20;5.80;;;3.00;;
56746;SDS011;42623;49.978;9.966;2023-04-15T00:28:31;5.80;;;3.05;;
56746;SDS011;42623;49.978;9.966;2023-04-15T00:28:41;6.57;;;3.17;;
56746;SDS011;42623;49.978;9.966;2023-04-15T00:28:51;6.20;;;2.90;;
56746;SDS011;42623;49.978;9.966;2023-04-15T00:29:02;6.07;;;2.97;;
56746;SDS011;42623;49.978;9.966;2023-04-15T00:29:12;5.57;;;3.15;;
56746;SDS011;42623;49.978;9.966;2023-04-15T00:29:22;6.63;;;3.30;;
56746;SDS011;42623;49.978;9.966;2023-04-15T00:29:32;7.05;;;3.17;;
56746;SDS011;42623;49.978;9.966;2023-04-15T00:29:43;6.27;;;2.63;;
56746;SDS011;42623;49.978;9.966;2023-04-15T00:29:53;5.67;;;2.80;;
56746;SDS011;42623;49.978;9.966;2023-04-15T00:30:03;5.87;;;3.00;;
56746;SDS011;42623;49.978;9.966;2023-04-15T00:30:14;5.78;;;3.05;;
56746;SDS011;42623;49.978;9.966;2023-04-15T00:30:24;5.43;;;2.70;;
56746;SDS011;42623;49.978;9.966;2023-04-15T00:30:35;5.57;;;3.10;;
56746;SDS011;42623;49.978;9.966;2023-04-15T00:30:45;5.97;;;3.40;;
56746;SDS011;42623;49.978;9.966;2023-04-15T00:30:56;5.77;;;3.37;;
56746;SDS011;42623;49.978;9.966;2023-04-15T00:31:06;5.15;;;2.92;;
56746;SDS011;42623;49.978;9.966;2023-04-15T00:31:16;5.20;;;2.90;;
56746;SDS011;42623;49.978;9.966;2023-04-15T00:31:27;6.03;;;2.97;;
56746;SDS011;42623;49.978;9.966;2023-04-15T00:31:37;6.88;;;3.40;;
56746;SDS011;42623;49.978;9.966;2023-04-15T00:31:47;7.10;;;3.57;;
56746;SDS011;42623;49.978;9.966;2023-04-15T00:31:57;5.80;;;3.23;;
56746;SDS011;42623;49.978;9.966;2023-04-15T00:32:07;5.23;;;2.80;;
56746;SDS011;42623;49.978;9.966;2023-04-15T00:32:18;5.95;;;3.00;;
56746;SDS011;42623;49.978;9.966;2023-04-15T00:32:29;6.80;;;3.45;;
56746;SDS011;42623;49.978;9.966;2023-04-15T00:32:39;7.37;;;3.23;;
56746;SDS011;42623;49.978;9.966;2023-04-15T00:32:51;6.38;;;2.97;;
56746;SDS011;42623;49.978;9.966;2023-04-15T00:33:01;6.20;;;2.77;;
56746;SDS011;42623;49.978;9.966;2023-04-15T00:33:12;6.13;;;3.00;;
56746;SDS011;42623;49.978;9.966;2023-04-15T00:33:23;5.93;;;2.80;;
56746;SDS011;42623;49.978;9.966;2023-04-15T00:33:33;5.43;;;2.90;;
56746;SDS011;42623;49.978;9.966;2023-04-15T00:33:45;5.00;;;2.74;;
56746;SDS011;42623;49.978;9.966;2023-04-15T00:33:55;5.53;;;3.20;;
56746;SDS011;42623;49.978;9.966;2023-04-15T00:34:06;5.57;;;3.00;;
56746;SDS011;42623;49.978;9.966;2023-04-15T00:34:16;5.30;;;2.73;;
56746;SDS011;42623;49.978;9.966;2023-04-15T00:34:26;4.13;;;2.22;;
56746;SDS011;42623;49.978;9.966;2023-04-15T00:34:39;4.15;;;2.33;;
56746;SDS011;42623;49.978;9.966;2023-04-15T00:34:49;4.57;;;2.60;;
56746;SDS011;42623;49.978;9.966;2023-04-15T00:35:00;4.78;;;2.85;;
56746;SDS011;42623;49.978;9.966;2023-04-15T00:35:11;4.90;;;2.95;;
56746;SDS011;42623;49.978;9.966;2023-04-15T00:35:21;4.43;;;2.63;;
56746;SDS011;42623;49.978;9.966;2023-04-15T00:35:32;4.70;;;2.53;;
56746;SDS011;42623;49.978;9.966;2023-04-15T00:35:43;4.32;;;2.50;;
56746;SDS011;42623;49.978;9.966;2023-04-15T00:35:53;5.27;;;2.87;;
56746;SDS011;42623;49.978;9.966;2023-04-15T00:36:05;6.43;;;3.37;;
56746;SDS011;42623;49.978;9.966;2023-04-15T00:36:15;7.38;;;3.63;;
56746;SDS011;42623;49.978;9.966;2023-04-15T00:36:25;7.43;;;3.73;;
56746;SDS011;42623;49.978;9.966;2023-04-15T00:36:35;6.27;;;3.50;;
56746;SDS011;42623;49.978;9.966;2023-04-15T00:36:45;5.77;;;3.20;;
56746;SDS011;42623;49.978;9.966;2023-04-15T00:36:55;5.60;;;3.07;;
56746;SDS011;42623;49.978;9.966;2023-04-15T00:37:06;5.37;;;3.07;;
56746;SDS011;42623;49.978;9.966;2023-04-15T00:37:16;5.90;;;3.40;;
56746;SDS011;42623;49.978;9.966;2023-04-15T00:37:26;5.83;;;3.47;;
56746;SDS011;42623;49.978;9.966;2023-04-15T00:37:36;6.57;;;3.87;;
56746;SDS011;42623;49.978;9.966;2023-04-15T00:37:47;6.50;;;3.80;;
56746;SDS011;42623;49.978;9.966;2023-04-15T00:37:57;6.97;;;3.75;;
56746;SDS011;42623;49.978;9.966;2023-04-15T00:38:07;7.10;;;3.83;;
56746;SDS011;42623;49.978;9.966;2023-04-15T00:38:18;7.38;;;3.90;;
56746;SDS011;42623;49.978;9.966;2023-04-15T00:38:28;6.93;;;3.97;;
56746;SDS011;42623;49.978;9.966;2023-04-15T00:38:38;7.10;;;4.20;;
56746;SDS011;42623;49.978;9.966;2023-04-15T00:38:48;7.03;;;4.00;;
56746;SDS011;42623;49.978;9.966;2023-04-15T00:38:59;7.35;;;4.22;;
56746;SDS011;42623;49.978;9.966;2023-04-15T00:39:09;7.03;;;4.00;;
56746;SDS011;42623;49.978;9.966;2023-04-15T00:39:19;7.23;;;4.17;;
56746;SDS011;42623;49.978;9.966;2023-04-15T00:39:29;6.83;;;3.77;;
56746;SDS011;42623;49.978;9.966;2023-04-15T00:39:39;7.03;;;3.72;;
56746;SDS011;42623;49.978;9.966;2023-04-15T00:39:49;6.37;;;3.60;;
56746;SDS011;42623;49.978;9.966;2023-04-15T00:40:00;7.10;;;3.77;;
56746;SDS011;42623;49.978;9.966;2023-04-15T00:40:11;7.53;;;3.93;;
56746;SDS011;42623;49.978;9.966;2023-04-15T00:40:22;7.38;;;3.88;;
56746;SDS011;42623;49.978;9.966;2023-04-15T00:40:33;6.57;;;3.53;;
56746;SDS011;42623;49.978;9.966;2023-04-15T00:40:44;6.45;;;3.33;;
56746;SDS011;42623;49.978;9.966;2023-04-15T00:40:54;7.53;;;3.27;;
56746;SDS011;42623;49.978;9.966;2023-04-15T00:41:05;7.57;;;3.67;;
56746;SDS011;42623;49.978;9.966;2023-04-15T00:41:17;6.90;;;3.25;;
56746;SDS011;42623;49.978;9.966;2023-04-15T00:41:28;6.20;;;3.40;;
56746;SDS011;42623;49.978;9.966;2023-04-15T00:41:38;6.20;;;3.10;;
56746;SDS011;42623;49.978;9.966;2023-04-15T00:41:48;6.70;;;3.63;;
56746;SDS011;42623;49.978;9.966;2023-04-15T00:41:59;6.85;;;3.45;;
56746;SDS011;42623;49.978;9.966;2023-04-15T00:42:09;7.00;;;3.73;;
56746;SDS011;42623;49.978;9.966;2023-04-15T00:42:19;6.47;;;3.50;;
56746;SDS011;42623;49.978;9.966;2023-04-15T00:42:30;6.66;;;3.64;;
56746;SDS011;42623;49.978;9.966;2023-04-15T00:42:40;7.30;;;3.20;;
56746;SDS011;42623;49.978;9.966;2023-04-15T00:42:51;7.90;;;3.73;;
56746;SDS011;42623;49.978;9.966;2023-04-15T00:43:01;9.27;;;4.87;;
56746;SDS011;42623;49.978;9.966;2023-04-15T00:43:11;8.70;;;5.40;;
56746;SDS011;42623;49.978;9.966;2023-04-15T00:43:21;8.87;;;5.17;;
56746;SDS011;42623;49.978;9.966;2023-04-15T00:43:32;8.40;;;4.80;;
56746;SDS011;42623;49.978;9.966;2023-04-15T00:43:42;8.57;;;4.53;;
56746;SDS011;42623;49.978;9.966;2023-04-15T00:43:52;9.20;;;5.00;;
56746;SDS011;42623;49.978;9.966;2023-04-15T00:44:03;8.70;;;4.50;;
56746;SDS011;42623;49.978;9.966;2023-04-15T00:44:13;8.47;;;4.23;;
56746;SDS011;42623;49.978;9.966;2023-04-15T00:44:24;8.55;;;4.20;;
56746;SDS011;42623;49.978;9.966;2023-04-15T00:44:34;8.33;;;4.43;;
56746;SDS011;42623;49.978;9.966;2023-04-15T00:44:44;8.40;;;4.97;;
56746;SDS011;42623;49.978;9.966;2023-04-15T00:44:55;7.80;;;4.80;;
56746;SDS011;42623;49.978;9.966;2023-04-15T00:45:06;8.40;;;4.93;;
56746;SDS011;42623;49.978;9.966;2023-04-15T00:45:17;8.95;;;5.53;;
56746;SDS011;42623;49.978;9.966;2023-04-15T00:45:28;8.73;;;5.03;;
56746;SDS011;42623;49.978;9.966;2023-04-15T00:45:38;6.93;;;4.27;;
56746;SDS011;42623;49.978;9.966;2023-04-15T00:45:48;6.33;;;3.87;;
56746;SDS011;42623;49.978;9.966;2023-04-15T00:46:00;6.85;;;3.95;;
56746;SDS011;42623;49.978;9.966;2023-04-15T00:46:12;7.88;;;3.80;;
56746;SDS011;42623;49.978;9.966;2023-04-15T00:46:23;7.05;;;3.45;;
56746;SDS011;42623;49.978;9.966;2023-04-15T00:46:35;6.00;;;3.22;;
56746;SDS011;42623;49.978;9.966;2023-04-15T00:46:46;6.32;;;3.40;;
56746;SDS011;42623;49.978;9.966;2023-04-15T00:46:59;6.55;;;3.38;;
56746;SDS011;42623;49.978;9.966;2023-04-15T00:47:09;7.43;;;3.53;;
56746;SDS011;42623;49.978;9.966;2023-04-15T00:47:20;7.60;;;3.75;;
56746;SDS011;42623;49.978;9.966;2023-04-15T00:47:30;7.17;;;3.83;;
56746;SDS011;42623;49.978;9.966;2023-04-15T00:47:40;7.00;;;3.63;;
56746;SDS011;42623;49.978;9.966;2023-04-15T00:47:52;6.78;;;3.58;;
56746;SDS011;42623;49.978;9.966;2023-04-15T00:48:02;5.70;;;3.10;;
56746;SDS011;42623;49.978;9.966;2023-04-15T00:48:12;6.00;;;3.07;;
56746;SDS011;42623;49.978;9.966;2023-04-15T00:48:22;6.28;;;2.80;;
56746;SDS011;42623;49.978;9.966;2023-04-15T00:48:33;7.00;;;2.90;;
56746;SDS011;42623;49.978;9.966;2023-04-15T00:48:43;6.43;;;3.30;;
56746;SDS011;42623;49.978;9.966;2023-04-15T00:48:54;5.63;;;3.17;;
56746;SDS011;42623;49.978;9.966;2023-04-15T00:49:05;4.73;;;2.70;;
56746;SDS011;42623;49.978;9.966;2023-04-15T00:49:15;5.13;;;2.47;;
56746;SDS011;42623;49.978;9.966;2023-04-15T00:49:27;5.35;;;2.67;;
56746;SDS011;42623;49.978;9.966;2023-04-15T00:49:38;5.78;;;3.00;;
56746;SDS011;42623;49.978;9.966;2023-04-15T00:49:48;6.13;;;3.03;;
56746;SDS011;42623;49.978;9.966;2023-04-15T00:49:58;5.95;;;2.75;;
56746;SDS011;42623;49.978;9.966;2023-04-15T00:50:08;5.70;;;2.77;;
56746;SDS011;42623;49.978;9.966;2023-04-15T00:50:19;5.07;;;2.70;;
56746;SDS011;42623;49.978;9.966;2023-04-15T00:50:29;6.43;;;3.23;;
56746;SDS011;42623;49.978;9.966;2023-04-15T00:50:39;6.00;;;3.00;;
56746;SDS011;42623;49.978;9.966;2023-04-15T00:50:49;6.20;;;3.00;;
56746;SDS011;42623;49.978;9.966;2023-04-15T00:51:00;5.38;;;3.13;;
56746;SDS011;42623;49.978;9.966;2023-04-15T00:51:10;6.05;;;3.47;;
56746;SDS011;42623;49.978;9.966;2023-04-15T00:51:21;6.27;;;3.67;;
56746;SDS011;42623;49.978;9.966;2023-04-15T00:51:31;6.40;;;3.40;;
56746;SDS011;42623;49.978;9.966;2023-04-15T00:51:42;5.85;;;3.25;;
56746;SDS011;42623;49.978;9.966;2023-04-15T00:51:52;5.93;;;3.05;;
56746;SDS011;42623;49.978;9.966;2023-04-15T00:52:02;5.83;;;3.00;;
56746;SDS011;42623;49.978;9.966;2023-04-15T00:52:13;5.83;;;2.87;;
56746;SDS011;42623;49.978;9.966;2023-04-15T00:52:23;5.43;;;2.87;;
56746;SDS011;42623;49.978;9.966;2023-04-15T00:52:33;5.15;;;2.85;;
56746;SDS011;42623;49.978;9.966;2023-04-15T00:52:43;5.43;;;2.93;;
56746;SDS011;42623;49.978;9.966;2023-04-15T00:52:53;5.77;;;2.93;;
56746;SDS011;42623;49.978;9.966;2023-04-15T00:53:04;5.90;;;2.77;;
56746;SDS011;42623;49.978;9.966;2023-04-15T00:53:14;5.72;;;2.58;;
56746;SDS011;42623;49.978;9.966;2023-04-15T00:53:24;4.73;;;2.30;;
56746;SDS011;42623;49.978;9.966;2023-04-15T00:53:35;4.35;;;2.20;;
56746;SDS011;42623;49.978;9.966;2023-04-15T00:53:45;4.67;;;2.60;;
56746;SDS011;42623;49.978;9.966;2023-04-15T00:53:55;4.67;;;2.70;;
56746;SDS011;42623;49.978;9.966;2023-04-15T00:54:06;5.82;;;2.95;;
56746;SDS011;42623;49.978;9.966;2023-04-15T00:54:16;6.20;;;2.97;;
56746;SDS011;42623;49.978;9.966;2023-04-15T00:54:27;6.68;;;3.17;;
56746;SDS011;42623;49.978;9.966;2023-04-15T00:54:37;5.90;;;3.07;;
56746;SDS011;42623;49.978;9.966;2023-04-15T00:54:47;5.77;;;3.10;;
56746;SDS011;42623;49.978;9.966;2023-04-15T00:54:57;5.43;;;2.90;;
56746;SDS011;42623;49.978;9.966;2023-04-15T00:55:08;5.47;;;3.13;;
56746;SDS011;42623;49.978;9.966;2023-04-15T00:55:18;5.50;;;3.00;;
56746;SDS011;42623;49.978;9.966;2023-04-15T00:55:29;5.23;;;2.90;;
56746;SDS011;42623;49.978;9.966;2023-04-15T00:55:39;5.38;;;2.85;;
56746;SDS011;42623;49.978;9.966;2023-04-15T00:55:49;5.70;;;3.10;;
56746;SDS011;42623;49.978;9.966;2023-04-15T00:56:00;6.05;;;3.13;;
56746;SDS011;42623;49.978;9.966;2023-04-15T00:56:10;6.73;;;3.30;;
56746;SDS011;42623;49.978;9.966;2023-04-15T00:56:20;6.93;;;3.10;;
56746;SDS011;42623;49.978;9.966;2023-04-15T00:56:34;6.90;;;3.10;;
56746;SDS011;42623;49.978;9.966;2023-04-15T00:56:44;6.03;;;2.78;;
56746;SDS011;42623;49.978;9.966;2023-04-15T00:56:55;5.45;;;2.80;;
56746;SDS011;42623;49.978;9.966;2023-04-15T00:57:05;5.07;;;2.77;;
56746;SDS011;42623;49.978;9.966;2023-04-15T00:57:16;4.78;;;2.67;;
56746;SDS011;42623;49.978;9.966;2023-04-15T00:57:26;5.10;;;2.63;;
56746;SDS011;42623;49.978;9.966;2023-04-15T00:57:38;6.15;;;2.92;;
56746;SDS011;42623;49.978;9.966;2023-04-15T00:57:48;6.95;;;3.40;;
56746;SDS011;42623;49.978;9.966;2023-04-15T00:57:59;7.55;;;3.55;;
56746;SDS011;42623;49.978;9.966;2023-04-15T00:58:09;8.60;;;3.80;;
56746;SDS011;42623;49.978;9.966;2023-04-15T00:58:20;8.13;;;3.80;;
56746;SDS011;42623;49.978;9.966;2023-04-15T00:58:30;6.83;;;3.53;;
56746;SDS011;42623;49.978;9.966;2023-04-15T00:58:40;5.82;;;3.17;;
56746;SDS011;42623;49.978;9.966;2023-04-15T00:58:50;5.60;;;2.90;;
56746;SDS011;42623;49.978;9.966;2023-04-15T00:59:01;5.17;;;2.80;;
56746;SDS011;42623;49.978;9.966;2023-04-15T00:59:11;7.53;;;2.97;;
56746;SDS011;42623;49.978;9.966;2023-04-15T00:59:22;7.77;;;2.90;;
56746;SDS011;42623;49.978;9.966;2023-04-15T00:59:32;8.23;;;3.33;;
56746;SDS011;42623;49.978;9.966;2023-04-15T00:59:42;5.40;;;2.93;;
56746;SDS011;42623;49.978;9.966;2023-04-15T00:59:53;5.13;;;2.90;;
56746;SDS011;42623;49.978;9.966;2023-04-15T01:00:04;4.95;;;2.47;;
56746;SDS011;42623;49.978;9.966;2023-04-15T01:00:16;5.57;;;2.67;;
56746;SDS011;42623;49.978;9.966;2023-04-15T01:00:27;5.30;;;2.90;;
56746;SDS011;42623;49.978;9.966;2023-04-15T01:00:37;5.45;;;3.03;;
56746;SDS011;42623;49.978;9.966;2023-04-15T01:00:48;5.77;;;3.17;;
56746;SDS011;42623;49.978;9.966;2023-04-15T01:00:58;5.90;;;3.13;;
56746;SDS011;42623;49.978;9.966;2023-04-15T01:01:08;5.63;;;3.13;;
56746;SDS011;42623;49.978;9.966;2023-04-15T01:01:21;5.67;;;3.17;;
56746;SDS011;42623;49.978;9.966;2023-04-15T01:01:36;5.90;;;2.83;;
56746;SDS011;42623;49.978;9.966;2023-04-15T01:01:47;6.25;;;3.03;;
56746;SDS011;42623;49.978;9.966;2023-04-15T01:01:57;6.28;;;3.05;;
56746;SDS011;42623;49.978;9.966;2023-04-15T01:02:07;5.97;;;2.87;;
56746;SDS011;42623;49.978;9.966;2023-04-15T01:02:18;5.67;;;2.77;;
56746;SDS011;42623;49.978;9.966;2023-04-15T01:02:28;5.20;;;2.63;;
56746;SDS011;42623;49.978;9.966;2023-04-15T01:02:38;5.47;;;2.87;;
56746;SDS011;42623;49.978;9.966;2023-04-15T01:02:48;5.77;;;3.10;;
56746;SDS011;42623;49.978;9.966;2023-04-15T01:02:59;5.88;;;3.20;;
56746;SDS011;42623;49.978;9.966;2023-04-15T01:03:09;5.20;;;2.87;;
56746;SDS011;42623;49.978;9.966;2023-04-15T01:03:20;5.15;;;2.90;;
56746;SDS011;42623;49.978;9.966;2023-04-15T01:03:30;5.30;;;2.90;;
56746;SDS011;42623;49.978;9.966;2023-04-15T01:03:40;5.43;;;3.03;;